createdAt,value
2018-06-07T00:00:46.912Z,974.74
2018-06-07T00:01:39.534Z,974.71
2018-06-07T00:02:49.458Z,974.73
2018-06-07T00:03:40.063Z,974.68
2018-06-07T00:04:47.913Z,974.66
2018-06-07T00:05:48.305Z,974.68
2018-06-07T00:06:49.480Z,974.65
2018-06-07T00:07:48.863Z,974.62
2018-06-07T00:08:50.141Z,974.63
2018-06-07T00:09:50.318Z,974.64
2018-06-07T00:10:50.761Z,974.62
2018-06-07T00:11:50.841Z,974.65
2018-06-07T00:12:51.202Z,974.65
2018-06-07T00:13:51.689Z,974.65
2018-06-07T00:14:52.830Z,974.62
2018-06-07T00:15:51.990Z,974.62
2018-06-07T00:16:53.632Z,974.62
2018-06-07T00:17:52.892Z,974.65
2018-06-07T00:18:53.133Z,974.64
2018-06-07T00:19:53.295Z,974.62
2018-06-07T00:20:53.721Z,974.57
2018-06-07T00:21:52.901Z,974.59
2018-06-07T00:22:54.182Z,974.60
2018-06-07T00:23:55.551Z,974.65
2018-06-07T00:24:54.892Z,974.67
2018-06-07T00:25:56.068Z,974.67
2018-06-07T00:26:54.284Z,974.70
2018-06-07T00:27:54.628Z,974.69
2018-06-07T00:28:55.923Z,974.67
2018-06-07T00:29:57.273Z,974.72
2018-06-07T00:30:55.579Z,974.70
2018-06-07T00:31:55.843Z,974.75
2018-06-07T00:32:57.204Z,974.71
2018-06-07T00:33:48.927Z,974.74
2018-06-07T00:34:58.810Z,974.77
2018-06-07T00:35:57.091Z,974.75
2018-06-07T00:36:57.419Z,974.72
2018-06-07T00:37:58.654Z,974.74
2018-06-07T00:38:50.364Z,974.73
2018-06-07T00:39:58.361Z,974.76
2018-06-07T00:40:58.647Z,974.75
2018-06-07T00:41:59.118Z,974.74
2018-06-07T00:42:59.438Z,974.75
2018-06-07T00:44:00.760Z,974.73
2018-06-07T00:44:59.871Z,974.74
2018-06-07T00:45:52.490Z,974.75
2018-06-07T00:47:00.476Z,974.76
2018-06-07T00:48:01.732Z,974.73
2018-06-07T00:48:53.474Z,974.70
2018-06-07T00:49:53.746Z,974.75
2018-06-07T00:50:54.022Z,974.73
2018-06-07T00:52:03.879Z,974.78
2018-06-07T00:53:05.150Z,974.77
2018-06-07T00:54:02.483Z,974.79
2018-06-07T00:55:03.833Z,974.80
2018-06-07T00:56:04.163Z,974.78
2018-06-07T00:57:03.603Z,974.81
2018-06-07T00:57:56.212Z,974.75
2018-06-07T00:59:04.232Z,974.70
2018-06-07T01:00:05.442Z,974.75
2018-06-07T01:01:06.058Z,974.76
2018-06-07T01:02:06.360Z,974.74
2018-06-07T01:03:06.578Z,974.73
2018-06-07T01:04:05.960Z,974.74
2018-06-07T01:05:06.282Z,974.72
2018-06-07T01:06:06.608Z,974.73
2018-06-07T01:07:07.021Z,974.71
2018-06-07T01:08:07.322Z,974.70
2018-06-07T01:09:08.710Z,974.71
2018-06-07T01:10:09.109Z,974.69
2018-06-07T01:11:10.362Z,974.69
2018-06-07T01:12:10.516Z,974.72
2018-06-07T01:13:08.788Z,974.71
2018-06-07T01:14:09.206Z,974.70
2018-06-07T01:15:10.563Z,974.75
2018-06-07T01:16:09.919Z,974.69
2018-06-07T01:17:02.486Z,974.75
2018-06-07T01:18:02.704Z,974.71
2018-06-07T01:19:02.946Z,974.73
2018-06-07T01:20:03.177Z,974.71
2018-06-07T01:21:03.416Z,974.75
2018-06-07T01:22:03.658Z,974.76
2018-06-07T01:23:03.892Z,974.73
2018-06-07T01:24:04.133Z,974.74
2018-06-07T01:25:04.402Z,974.73
2018-06-07T01:26:04.625Z,974.74
2018-06-07T01:27:04.859Z,974.76
2018-06-07T01:28:05.100Z,974.70
2018-06-07T01:29:05.325Z,974.71
2018-06-07T01:30:05.572Z,974.74
2018-06-07T01:31:15.514Z,974.78
2018-06-07T01:32:15.744Z,974.74
2018-06-07T01:33:14.043Z,974.73
2018-06-07T01:34:06.648Z,974.79
2018-06-07T01:35:06.848Z,974.78
2018-06-07T01:36:14.975Z,974.78
2018-06-07T01:37:16.117Z,974.82
2018-06-07T01:38:07.850Z,974.82
2018-06-07T01:39:15.895Z,974.86
2018-06-07T01:40:08.415Z,974.81
2018-06-07T01:41:16.259Z,974.82
2018-06-07T01:42:18.677Z,974.83
2018-06-07T01:43:17.784Z,974.84
2018-06-07T01:44:09.537Z,974.80
2018-06-07T01:45:18.583Z,974.80
2018-06-07T01:46:18.904Z,974.78
2018-06-07T01:47:19.266Z,974.78
2018-06-07T01:48:19.638Z,974.76
2018-06-07T01:49:19.060Z,974.78
2018-06-07T01:50:20.365Z,974.81
2018-06-07T01:51:12.067Z,974.76
2018-06-07T01:52:12.312Z,974.77
2018-06-07T01:53:20.284Z,974.75
2018-06-07T01:54:22.632Z,974.79
2018-06-07T01:55:21.881Z,974.80
2018-06-07T01:56:21.468Z,974.76
2018-06-07T01:57:23.510Z,974.81
2018-06-07T01:58:23.723Z,974.79
2018-06-07T01:59:22.058Z,974.79
2018-06-07T02:00:24.397Z,974.82
2018-06-07T02:01:22.637Z,974.80
2018-06-07T02:02:23.062Z,974.76
2018-06-07T02:03:25.283Z,974.75
2018-06-07T02:04:24.809Z,974.79
2018-06-07T02:05:24.919Z,974.75
2018-06-07T02:06:26.521Z,974.75
2018-06-07T02:07:25.561Z,974.75
2018-06-07T02:08:25.043Z,974.74
2018-06-07T02:09:26.336Z,974.77
2018-06-07T02:10:25.690Z,974.75
2018-06-07T02:11:25.987Z,974.76
2018-06-07T02:12:27.270Z,974.76
2018-06-07T02:13:19.001Z,974.74
2018-06-07T02:14:26.967Z,974.79
2018-06-07T02:15:28.270Z,974.77
2018-06-07T02:16:28.767Z,974.79
2018-06-07T02:17:29.151Z,974.80
2018-06-07T02:18:29.538Z,974.78
2018-06-07T02:19:29.931Z,974.80
2018-06-07T02:20:29.220Z,974.80
2018-06-07T02:21:30.602Z,974.79
2018-06-07T02:22:31.890Z,974.83
2018-06-07T02:23:31.052Z,974.81
2018-06-07T02:24:22.806Z,974.84
2018-06-07T02:25:32.779Z,974.81
2018-06-07T02:26:32.928Z,974.82
2018-06-07T02:27:32.290Z,974.83
2018-06-07T02:28:32.565Z,974.82
2018-06-07T02:29:31.975Z,974.84
2018-06-07T02:30:33.155Z,974.81
2018-06-07T02:31:32.774Z,974.83
2018-06-07T02:32:34.091Z,974.85
2018-06-07T02:33:35.267Z,974.81
2018-06-07T02:34:35.550Z,974.83
2018-06-07T02:35:34.709Z,974.85
2018-06-07T02:36:36.039Z,974.86
2018-06-07T02:37:34.295Z,974.82
2018-06-07T02:38:27.044Z,974.82
2018-06-07T02:39:34.832Z,974.82
2018-06-07T02:40:36.497Z,974.79
2018-06-07T02:41:27.940Z,974.82
2018-06-07T02:42:36.835Z,974.80
2018-06-07T02:43:37.202Z,974.84
2018-06-07T02:44:36.660Z,974.88
2018-06-07T02:45:38.917Z,974.85
2018-06-07T02:46:38.320Z,974.87
2018-06-07T02:47:38.880Z,974.89
2018-06-07T02:48:37.915Z,974.89
2018-06-07T02:49:39.170Z,974.86
2018-06-07T02:50:39.575Z,974.86
2018-06-07T02:51:39.807Z,974.88
2018-06-07T02:52:40.888Z,974.89
2018-06-07T02:53:39.426Z,974.89
2018-06-07T02:54:40.471Z,974.91
2018-06-07T02:55:40.060Z,974.93
2018-06-07T02:56:42.250Z,974.92
2018-06-07T02:57:40.491Z,974.93
2018-06-07T02:58:42.960Z,974.95
2018-06-07T02:59:42.090Z,974.92
2018-06-07T03:00:42.438Z,974.93
2018-06-07T03:01:41.895Z,974.89
2018-06-07T03:02:42.305Z,974.91
2018-06-07T03:03:44.760Z,974.91
2018-06-07T03:04:43.927Z,974.91
2018-06-07T03:05:44.260Z,974.97
2018-06-07T03:06:44.527Z,974.99
2018-06-07T03:07:45.697Z,974.99
2018-06-07T03:08:45.028Z,975.01
2018-06-07T03:09:46.157Z,975.03
2018-06-07T03:10:45.473Z,975.02
2018-06-07T03:11:44.822Z,975.02
2018-06-07T03:12:47.374Z,974.98
2018-06-07T03:13:47.543Z,974.96
2018-06-07T03:14:47.989Z,974.96
2018-06-07T03:15:46.145Z,974.93
2018-06-07T03:16:47.427Z,974.92
2018-06-07T03:17:48.792Z,974.93
2018-06-07T03:18:39.315Z,974.89
2018-06-07T03:19:47.260Z,974.89
2018-06-07T03:20:47.665Z,974.88
2018-06-07T03:21:49.015Z,974.94
2018-06-07T03:22:49.466Z,974.92
2018-06-07T03:23:49.776Z,974.97
2018-06-07T03:24:41.320Z,974.98
2018-06-07T03:25:51.314Z,975.03
2018-06-07T03:26:50.587Z,975.04
2018-06-07T03:27:50.951Z,975.04
2018-06-07T03:28:51.227Z,975.03
2018-06-07T03:29:51.750Z,975.02
2018-06-07T03:30:51.959Z,975.05
2018-06-07T03:31:53.425Z,975.08
2018-06-07T03:32:52.417Z,975.07
2018-06-07T03:33:54.760Z,975.07
2018-06-07T03:34:52.019Z,975.05
2018-06-07T03:35:44.672Z,975.04
2018-06-07T03:36:44.911Z,975.04
2018-06-07T03:37:53.829Z,975.05
2018-06-07T03:38:45.529Z,975.02
2018-06-07T03:39:45.786Z,975.05
2018-06-07T03:40:46.020Z,975.05
2018-06-07T03:41:46.242Z,975.06
2018-06-07T03:42:55.334Z,975.07
2018-06-07T03:43:46.858Z,975.12
2018-06-07T03:44:47.150Z,975.17
2018-06-07T03:45:56.190Z,975.19
2018-06-07T03:46:56.404Z,975.20
2018-06-07T03:47:56.850Z,975.18
2018-06-07T03:48:56.176Z,975.21
2018-06-07T03:49:56.550Z,975.20
2018-06-07T03:50:56.794Z,975.22
2018-06-07T03:51:57.173Z,975.22
2018-06-07T03:52:58.471Z,975.17
2018-06-07T03:53:59.013Z,975.17
2018-06-07T03:54:50.672Z,975.18
2018-06-07T03:55:59.552Z,975.19
2018-06-07T03:56:51.218Z,975.19
2018-06-07T03:57:59.227Z,975.22
2018-06-07T03:59:01.898Z,975.21
2018-06-07T03:59:59.884Z,975.23
2018-06-07T04:00:52.529Z,975.24
2018-06-07T04:01:52.759Z,975.25
2018-06-07T04:03:01.714Z,975.31
2018-06-07T04:04:02.103Z,975.30
2018-06-07T04:04:53.746Z,975.30
2018-06-07T04:05:54.001Z,975.31
2018-06-07T04:07:02.959Z,975.33
2018-06-07T04:08:02.250Z,975.30
2018-06-07T04:08:54.919Z,975.31
2018-06-07T04:09:55.153Z,975.28
2018-06-07T04:10:55.359Z,975.29
2018-06-07T04:11:55.608Z,975.26
2018-06-07T04:12:55.852Z,975.33
2018-06-07T04:13:56.094Z,975.32
2018-06-07T04:14:56.338Z,975.30
2018-06-07T04:15:56.571Z,975.34
2018-06-07T04:17:04.453Z,975.30
2018-06-07T04:17:57.110Z,975.34
2018-06-07T04:18:57.445Z,975.32
2018-06-07T04:19:57.582Z,975.31
2018-06-07T04:20:57.829Z,975.32
2018-06-07T04:21:58.088Z,975.38
2018-06-07T04:22:58.306Z,975.40
2018-06-07T04:23:58.569Z,975.44
2018-06-07T04:24:58.795Z,975.43
2018-06-07T04:25:59.041Z,975.47
2018-06-07T04:26:59.291Z,975.45
2018-06-07T04:27:59.511Z,975.48
2018-06-07T04:28:59.739Z,975.49
2018-06-07T04:30:00.021Z,975.47
2018-06-07T04:31:00.238Z,975.46
2018-06-07T04:32:00.486Z,975.42
2018-06-07T04:33:00.710Z,975.43
2018-06-07T04:34:00.964Z,975.40
2018-06-07T04:35:01.192Z,975.45
2018-06-07T04:36:01.472Z,975.46
2018-06-07T04:37:01.655Z,975.50
2018-06-07T04:38:01.962Z,975.55
2018-06-07T04:39:02.141Z,975.54
2018-06-07T04:40:02.385Z,975.53
2018-06-07T04:41:02.617Z,975.51
2018-06-07T04:42:02.837Z,975.48
2018-06-07T04:43:03.083Z,975.49
2018-06-07T04:44:03.322Z,975.49
2018-06-07T04:45:03.562Z,975.51
2018-06-07T04:46:03.797Z,975.49
2018-06-07T04:47:04.046Z,975.50
2018-06-07T04:48:04.290Z,975.52
2018-06-07T04:49:04.525Z,975.55
2018-06-07T04:50:04.874Z,975.56
2018-06-07T04:51:05.136Z,975.59
2018-06-07T04:52:05.506Z,975.61
2018-06-07T04:53:05.739Z,975.62
2018-06-07T04:54:06.004Z,975.57
2018-06-07T04:55:06.232Z,975.63
2018-06-07T04:56:06.500Z,975.63
2018-06-07T04:57:06.732Z,975.60
2018-06-07T04:58:06.971Z,975.61
2018-06-07T04:59:07.216Z,975.62
2018-06-07T05:00:07.430Z,975.64
2018-06-07T05:01:07.677Z,975.62
2018-06-07T05:02:07.941Z,975.65
2018-06-07T05:03:08.181Z,975.68
2018-06-07T05:04:08.443Z,975.71
2018-06-07T05:05:08.640Z,975.71
2018-06-07T05:06:08.900Z,975.71
2018-06-07T05:07:09.150Z,975.71
2018-06-07T05:08:09.385Z,975.70
2018-06-07T05:09:09.636Z,975.73
2018-06-07T05:10:09.949Z,975.71
2018-06-07T05:11:10.194Z,975.71
2018-06-07T05:12:10.439Z,975.71
2018-06-07T05:13:10.684Z,975.72
2018-06-07T05:14:10.903Z,975.73
2018-06-07T05:15:11.139Z,975.76
2018-06-07T05:16:11.403Z,975.78
2018-06-07T05:17:11.660Z,975.79
2018-06-07T05:18:11.895Z,975.82
2018-06-07T05:19:12.116Z,975.82
2018-06-07T05:20:12.365Z,975.82
2018-06-07T05:21:12.604Z,975.81
2018-06-07T05:22:12.846Z,975.78
2018-06-07T05:23:13.092Z,975.82
2018-06-07T05:24:13.340Z,975.83
2018-06-07T05:25:13.576Z,975.79
2018-06-07T05:26:13.816Z,975.84
2018-06-07T05:27:14.062Z,975.85
2018-06-07T05:28:14.291Z,975.86
2018-06-07T05:29:14.541Z,975.89
2018-06-07T05:30:14.759Z,975.92
2018-06-07T05:31:15.001Z,975.91
2018-06-07T05:32:15.252Z,975.89
2018-06-07T05:33:15.500Z,975.88
2018-06-07T05:34:15.745Z,975.88
2018-06-07T05:35:15.995Z,975.85
2018-06-07T05:36:16.234Z,975.88
2018-06-07T05:37:16.480Z,975.87
2018-06-07T05:38:16.727Z,975.91
2018-06-07T05:39:16.971Z,975.92
2018-06-07T05:40:17.210Z,975.92
2018-06-07T05:41:17.455Z,975.91
2018-06-07T05:42:17.700Z,975.94
2018-06-07T05:43:17.953Z,975.91
2018-06-07T05:44:18.195Z,975.92
2018-06-07T05:45:18.443Z,975.93
2018-06-07T05:46:18.686Z,975.91
2018-06-07T05:47:18.942Z,975.93
2018-06-07T05:48:19.172Z,975.93
2018-06-07T05:49:19.419Z,975.94
2018-06-07T05:50:19.668Z,975.97
2018-06-07T05:51:19.910Z,975.94
2018-06-07T05:52:20.159Z,975.93
2018-06-07T05:53:20.403Z,975.90
2018-06-07T05:54:20.649Z,975.92
2018-06-07T05:55:20.899Z,975.92
2018-06-07T05:56:21.146Z,975.93
2018-06-07T05:57:21.392Z,975.95
2018-06-07T05:58:21.639Z,975.98
2018-06-07T05:59:21.885Z,976.02
2018-06-07T06:00:22.186Z,976.02
2018-06-07T06:01:22.378Z,976.04
2018-06-07T06:02:22.624Z,976.04
2018-06-07T06:03:22.894Z,976.07
2018-06-07T06:04:23.133Z,976.05
2018-06-07T06:05:23.369Z,976.09
2018-06-07T06:06:23.614Z,976.12
2018-06-07T06:07:23.862Z,976.18
2018-06-07T06:08:24.106Z,976.13
2018-06-07T06:09:24.425Z,976.18
2018-06-07T06:10:24.600Z,976.20
2018-06-07T06:11:24.844Z,976.19
2018-06-07T06:12:25.092Z,976.22
2018-06-07T06:13:25.337Z,976.22
2018-06-07T06:14:33.214Z,976.23
2018-06-07T06:15:25.887Z,976.23
2018-06-07T06:16:26.138Z,976.24
2018-06-07T06:17:26.384Z,976.22
2018-06-07T06:18:26.631Z,976.22
2018-06-07T06:19:26.879Z,976.22
2018-06-07T06:20:27.115Z,976.22
2018-06-07T06:21:27.411Z,976.18
2018-06-07T06:22:27.611Z,976.23
2018-06-07T06:23:27.855Z,976.21
2018-06-07T06:24:28.102Z,976.21
2018-06-07T06:25:28.349Z,976.23
2018-06-07T06:26:28.599Z,976.20
2018-06-07T06:27:28.842Z,976.17
2018-06-07T06:28:29.088Z,976.18
2018-06-07T06:29:29.333Z,976.19
2018-06-07T06:30:29.580Z,976.19
2018-06-07T06:31:29.827Z,976.21
2018-06-07T06:32:30.074Z,976.20
2018-06-07T06:33:30.322Z,976.23
2018-06-07T06:34:30.591Z,976.20
2018-06-07T06:35:30.821Z,976.22
2018-06-07T06:36:31.064Z,976.24
2018-06-07T06:37:31.313Z,976.26
2018-06-07T06:38:31.560Z,976.24
2018-06-07T06:39:31.809Z,976.24
2018-06-07T06:40:32.051Z,976.22
2018-06-07T06:41:32.297Z,976.20
2018-06-07T06:42:32.541Z,976.22
2018-06-07T06:43:32.790Z,976.24
2018-06-07T06:44:33.035Z,976.26
2018-06-07T06:45:33.281Z,976.25
2018-06-07T06:46:33.528Z,976.24
2018-06-07T06:47:33.775Z,976.23
2018-06-07T06:48:34.027Z,976.24
2018-06-07T06:49:34.321Z,976.30
2018-06-07T06:50:34.517Z,976.30
2018-06-07T06:51:34.770Z,976.30
2018-06-07T06:52:35.015Z,976.30
2018-06-07T06:53:35.264Z,976.32
2018-06-07T06:54:35.511Z,976.37
2018-06-07T06:55:35.760Z,976.34
2018-06-07T06:56:36.008Z,976.40
2018-06-07T06:57:36.255Z,976.41
2018-06-07T06:58:36.504Z,976.41
2018-06-07T06:59:36.754Z,976.40
2018-06-07T07:00:37.010Z,976.48
2018-06-07T07:01:37.254Z,976.43
2018-06-07T07:02:37.507Z,976.47
2018-06-07T07:03:37.773Z,976.49
2018-06-07T07:04:38.000Z,976.50
2018-06-07T07:05:38.250Z,976.50
2018-06-07T07:06:38.499Z,976.50
2018-06-07T07:07:38.747Z,976.52
2018-06-07T07:08:39.001Z,976.49
2018-06-07T07:09:39.245Z,976.48
2018-06-07T07:10:39.492Z,976.48
2018-06-07T07:11:39.741Z,976.51
2018-06-07T07:12:39.990Z,976.52
2018-06-07T07:13:40.231Z,976.51
2018-06-07T07:14:40.477Z,976.54
2018-06-07T07:15:40.725Z,976.57
2018-06-07T07:16:40.972Z,976.60
2018-06-07T07:17:41.221Z,976.61
2018-06-07T07:18:41.469Z,976.58
2018-06-07T07:19:41.729Z,976.56
2018-06-07T07:20:41.971Z,976.59
2018-06-07T07:21:42.213Z,976.57
2018-06-07T07:22:42.461Z,976.53
2018-06-07T07:23:42.709Z,976.48
2018-06-07T07:24:42.957Z,976.53
2018-06-07T07:25:43.210Z,976.55
2018-06-07T07:26:43.459Z,976.52
2018-06-07T07:27:43.711Z,976.54
2018-06-07T07:28:43.959Z,976.61
2018-06-07T07:29:44.209Z,976.58
2018-06-07T07:30:44.460Z,976.63
2018-06-07T07:31:44.709Z,976.60
2018-06-07T07:32:44.957Z,976.58
2018-06-07T07:33:45.207Z,976.61
2018-06-07T07:34:45.456Z,976.64
2018-06-07T07:35:45.706Z,976.58
2018-06-07T07:36:45.957Z,976.57
2018-06-07T07:37:46.213Z,976.62
2018-06-07T07:38:46.464Z,976.60
2018-06-07T07:39:46.713Z,976.63
2018-06-07T07:40:46.963Z,976.61
2018-06-07T07:41:47.213Z,976.63
2018-06-07T07:42:47.462Z,976.62
2018-06-07T07:43:47.713Z,976.58
2018-06-07T07:44:47.963Z,976.55
2018-06-07T07:45:48.216Z,976.55
2018-06-07T07:46:48.485Z,976.59
2018-06-07T07:47:48.718Z,976.56
2018-06-07T07:48:48.969Z,976.60
2018-06-07T07:49:49.227Z,976.57
2018-06-07T07:50:49.479Z,976.61
2018-06-07T07:51:49.732Z,976.60
2018-06-07T07:52:49.984Z,976.61
2018-06-07T07:53:50.235Z,976.61
2018-06-07T07:54:50.489Z,976.62
2018-06-07T07:55:50.741Z,976.58
2018-06-07T07:56:50.992Z,976.59
2018-06-07T07:57:51.241Z,976.61
2018-06-07T07:58:51.493Z,976.61
2018-06-07T07:59:51.749Z,976.62
2018-06-07T08:00:52.002Z,976.66
2018-06-07T08:01:52.251Z,976.62
2018-06-07T08:02:52.505Z,976.63
2018-06-07T08:03:52.758Z,976.67
2018-06-07T08:04:53.011Z,976.65
2018-06-07T08:05:53.261Z,976.67
2018-06-07T08:06:53.514Z,976.66
2018-06-07T08:07:53.767Z,976.66
2018-06-07T08:08:54.018Z,976.66
2018-06-07T08:09:54.270Z,976.67
2018-06-07T08:10:54.522Z,976.64
2018-06-07T08:11:54.775Z,976.64
2018-06-07T08:12:55.031Z,976.66
2018-06-07T08:13:55.278Z,976.65
2018-06-07T08:14:55.533Z,976.64
2018-06-07T08:15:55.787Z,976.66
2018-06-07T08:16:56.039Z,976.68
2018-06-07T08:17:56.294Z,976.70
2018-06-07T08:18:56.545Z,976.74
2018-06-07T08:19:56.807Z,976.76
2018-06-07T08:20:57.053Z,976.74
2018-06-07T08:21:57.308Z,976.74
2018-06-07T08:22:57.564Z,976.71
2018-06-07T08:23:57.812Z,976.69
2018-06-07T08:24:58.085Z,976.66
2018-06-07T08:25:58.316Z,976.70
2018-06-07T08:26:58.570Z,976.69
2018-06-07T08:27:58.822Z,976.67
2018-06-07T08:28:59.077Z,976.71
2018-06-07T08:29:59.331Z,976.69
2018-06-07T08:30:59.587Z,976.71
2018-06-07T08:31:59.838Z,976.68
2018-06-07T08:33:00.095Z,976.68
2018-06-07T08:34:00.345Z,976.68
2018-06-07T08:35:00.600Z,976.66
2018-06-07T08:36:00.902Z,976.64
2018-06-07T08:37:01.115Z,976.64
2018-06-07T08:38:01.364Z,976.68
2018-06-07T08:39:01.619Z,976.68
2018-06-07T08:40:01.878Z,976.66
2018-06-07T08:41:02.128Z,976.64
2018-06-07T08:42:02.380Z,976.69
2018-06-07T08:43:02.638Z,976.66
2018-06-07T08:44:02.887Z,976.69
2018-06-07T08:45:03.152Z,976.67
2018-06-07T08:46:03.396Z,976.68
2018-06-07T08:47:03.652Z,976.69
2018-06-07T08:48:03.906Z,976.68
2018-06-07T08:49:04.160Z,976.67
2018-06-07T08:50:04.415Z,976.70
2018-06-07T08:51:04.669Z,976.71
2018-06-07T08:52:04.924Z,976.71
2018-06-07T08:53:05.176Z,976.74
2018-06-07T08:54:05.432Z,976.77
2018-06-07T08:55:05.685Z,976.77
2018-06-07T08:56:05.941Z,976.75
2018-06-07T08:57:06.195Z,976.73
2018-06-07T08:58:06.451Z,976.77
2018-06-07T08:59:06.705Z,976.77
2018-06-07T09:00:06.973Z,976.77
2018-06-07T09:01:07.212Z,976.76
2018-06-07T09:02:07.466Z,976.78
2018-06-07T09:03:07.722Z,976.78
2018-06-07T09:04:07.981Z,976.79
2018-06-07T09:05:08.235Z,976.79
2018-06-07T09:06:08.491Z,976.81
2018-06-07T09:07:08.799Z,976.80
2018-06-07T09:08:09.001Z,976.74
2018-06-07T09:09:09.257Z,976.75
2018-06-07T09:10:09.517Z,976.71
2018-06-07T09:11:09.768Z,976.75
2018-06-07T09:12:10.025Z,976.72
2018-06-07T09:13:10.282Z,976.75
2018-06-07T09:14:10.538Z,976.76
2018-06-07T09:15:10.799Z,976.76
2018-06-07T09:16:11.045Z,976.71
2018-06-07T09:17:11.299Z,976.72
2018-06-07T09:18:11.554Z,976.77
2018-06-07T09:19:11.810Z,976.75
2018-06-07T09:20:12.069Z,976.71
2018-06-07T09:21:12.322Z,976.73
2018-06-07T09:22:12.580Z,976.73
2018-06-07T09:23:12.831Z,976.72
2018-06-07T09:24:13.089Z,976.73
2018-06-07T09:25:13.342Z,976.71
2018-06-07T09:26:13.602Z,976.72
2018-06-07T09:27:13.851Z,976.74
2018-06-07T09:28:14.109Z,976.74
2018-06-07T09:29:14.365Z,976.76
2018-06-07T09:30:14.625Z,976.78
2018-06-07T09:31:14.879Z,976.79
2018-06-07T09:32:15.133Z,976.75
2018-06-07T09:33:15.389Z,976.72
2018-06-07T09:34:15.645Z,976.77
2018-06-07T09:35:15.902Z,976.75
2018-06-07T09:36:16.159Z,976.77
2018-06-07T09:37:16.416Z,976.76
2018-06-07T09:38:16.668Z,976.75
2018-06-07T09:39:16.929Z,976.80
2018-06-07T09:40:17.182Z,976.76
2018-06-07T09:41:17.437Z,976.81
2018-06-07T09:42:17.695Z,976.77
2018-06-07T09:43:17.950Z,976.81
2018-06-07T09:44:18.207Z,976.81
2018-06-07T09:45:18.471Z,976.83
2018-06-07T09:46:18.719Z,976.80
2018-06-07T09:47:18.975Z,976.83
2018-06-07T09:48:19.230Z,976.78
2018-06-07T09:49:19.485Z,976.82
2018-06-07T09:50:19.741Z,976.90
2018-06-07T09:51:20.000Z,976.86
2018-06-07T09:52:20.255Z,976.89
2018-06-07T09:53:20.513Z,976.93
2018-06-07T09:54:20.767Z,976.86
2018-06-07T09:55:21.022Z,976.88
2018-06-07T09:56:21.278Z,976.88
2018-06-07T09:57:21.537Z,976.95
2018-06-07T09:58:21.844Z,976.90
2018-06-07T09:59:22.044Z,976.92
2018-06-07T10:00:22.297Z,976.87
2018-06-07T10:01:22.554Z,976.86
2018-06-07T10:02:22.810Z,976.86
2018-06-07T10:03:23.065Z,976.88
2018-06-07T10:04:23.320Z,976.90
2018-06-07T10:05:23.578Z,976.92
2018-06-07T10:06:23.833Z,976.92
2018-06-07T10:07:24.085Z,977.07
2018-06-07T10:08:24.344Z,977.34
2018-06-07T10:09:24.598Z,977.46
2018-06-07T10:10:24.854Z,977.46
2018-06-07T10:11:25.111Z,977.50
2018-06-07T10:12:25.361Z,977.49
2018-06-07T10:13:25.618Z,977.52
2018-06-07T10:14:25.872Z,977.56
2018-06-07T10:15:26.132Z,977.62
2018-06-07T10:16:26.385Z,977.63
2018-06-07T10:17:26.643Z,977.52
2018-06-07T10:18:26.898Z,977.49
2018-06-07T10:19:27.154Z,977.46
2018-06-07T10:20:27.422Z,977.49
2018-06-07T10:21:27.697Z,977.48
2018-06-07T10:22:27.922Z,977.46
2018-06-07T10:23:28.183Z,977.47
2018-06-07T10:24:28.442Z,977.44
2018-06-07T10:25:28.668Z,977.51
2018-06-07T10:26:28.923Z,977.58
2018-06-07T10:27:29.180Z,977.67
2018-06-07T10:28:29.435Z,977.58
2018-06-07T10:29:29.695Z,977.31
2018-06-07T10:30:29.948Z,977.19
2018-06-07T10:31:30.218Z,977.05
2018-06-07T10:32:30.456Z,976.90
2018-06-07T10:33:30.698Z,976.90
2018-06-07T10:34:30.960Z,976.82
2018-06-07T10:35:31.232Z,976.84
2018-06-07T10:36:31.465Z,976.83
2018-06-07T10:37:31.720Z,976.84
2018-06-07T10:38:31.974Z,976.81
2018-06-07T10:39:32.251Z,976.80
2018-06-07T10:40:32.535Z,976.77
2018-06-07T10:41:32.760Z,976.74
2018-06-07T10:42:33.001Z,976.79
2018-06-07T10:43:33.253Z,976.54
2018-06-07T10:44:33.515Z,976.82
2018-06-07T10:45:33.770Z,976.80
2018-06-07T10:46:34.052Z,976.45
2018-06-07T10:47:34.340Z,976.43
2018-06-07T10:48:34.549Z,976.43
2018-06-07T10:49:34.793Z,976.39
2018-06-07T10:50:35.043Z,976.46
2018-06-07T10:51:35.305Z,976.48
2018-06-07T10:52:35.565Z,976.50
2018-06-07T10:53:35.818Z,976.71
2018-06-07T10:54:36.067Z,976.81
2018-06-07T10:55:36.320Z,976.45
2018-06-07T10:56:36.580Z,976.92
2018-06-07T10:57:36.833Z,976.90
2018-06-07T10:58:37.092Z,976.68
2018-06-07T10:59:37.348Z,976.64
2018-06-07T11:00:37.629Z,976.67
2018-06-07T11:01:37.867Z,976.31
2018-06-07T11:02:38.115Z,976.28
2018-06-07T11:03:38.364Z,976.27
2018-06-07T11:04:38.625Z,976.31
2018-06-07T11:05:38.876Z,976.31
2018-06-07T11:06:39.132Z,976.35
2018-06-07T11:07:39.388Z,976.27
2018-06-07T11:08:39.646Z,976.25
2018-06-07T11:09:39.900Z,976.21
2018-06-07T11:10:40.142Z,976.20
2018-06-07T11:11:40.402Z,976.21
2018-06-07T11:12:40.656Z,976.25
2018-06-07T11:13:40.903Z,976.71
2018-06-07T11:14:41.179Z,976.18
2018-06-07T11:15:41.395Z,976.34
2018-06-07T11:16:41.674Z,976.66
2018-06-07T11:17:41.926Z,976.22
2018-06-07T11:18:42.169Z,976.17
2018-06-07T11:19:42.424Z,976.17
2018-06-07T11:20:42.690Z,976.68
2018-06-07T11:21:42.918Z,976.79
2018-06-07T11:22:43.172Z,976.65
2018-06-07T11:23:43.427Z,976.10
2018-06-07T11:24:43.681Z,976.03
2018-06-07T11:25:43.935Z,976.02
2018-06-07T11:26:44.193Z,975.99
2018-06-07T11:27:44.441Z,976.04
2018-06-07T11:28:44.702Z,977.05
2018-06-07T11:29:44.981Z,977.37
2018-06-07T11:30:45.245Z,977.53
2018-06-07T11:31:45.468Z,977.49
2018-06-07T11:32:45.689Z,975.97
2018-06-07T11:33:45.942Z,976.00
2018-06-07T11:34:46.187Z,976.14
2018-06-07T11:35:46.443Z,976.24
2018-06-07T11:36:46.700Z,976.26
2018-06-07T11:37:46.944Z,976.23
2018-06-07T11:38:47.199Z,976.27
2018-06-07T11:39:47.459Z,976.26
2018-06-07T11:40:47.720Z,976.24
2018-06-07T11:41:47.955Z,976.28
2018-06-07T11:42:48.211Z,975.91
2018-06-07T11:43:48.478Z,975.85
2018-06-07T11:44:48.717Z,975.83
2018-06-07T11:45:48.968Z,975.93
2018-06-07T11:46:49.221Z,976.10
2018-06-07T11:47:49.480Z,976.21
2018-06-07T11:48:49.779Z,976.24
2018-06-07T11:49:49.990Z,976.26
2018-06-07T11:50:50.256Z,976.20
2018-06-07T11:51:50.500Z,976.19
2018-06-07T11:52:50.739Z,976.23
2018-06-07T11:53:50.992Z,976.20
2018-06-07T11:54:51.308Z,976.18
2018-06-07T11:55:51.506Z,976.18
2018-06-07T11:56:51.764Z,976.21
2018-06-07T11:57:52.005Z,976.11
2018-06-07T11:58:52.272Z,976.09
2018-06-07T11:59:52.511Z,976.09
2018-06-07T12:00:52.755Z,976.11
2018-06-07T12:01:53.013Z,976.14
2018-06-07T12:02:53.267Z,976.08
2018-06-07T12:03:53.512Z,976.09
2018-06-07T12:04:53.769Z,976.09
2018-06-07T12:05:54.011Z,976.11
2018-06-07T12:06:54.288Z,976.14
2018-06-07T12:07:54.543Z,976.08
2018-06-07T12:08:54.788Z,976.07
2018-06-07T12:09:55.040Z,976.07
2018-06-07T12:10:55.291Z,976.01
2018-06-07T12:11:55.529Z,975.99
2018-06-07T12:12:55.788Z,975.97
2018-06-07T12:13:56.040Z,976.00
2018-06-07T12:14:56.292Z,975.93
2018-06-07T12:15:56.554Z,975.88
2018-06-07T12:16:56.820Z,975.80
2018-06-07T12:17:57.060Z,975.80
2018-06-07T12:18:57.316Z,975.79
2018-06-07T12:19:57.573Z,975.79
2018-06-07T12:20:57.827Z,975.80
2018-06-07T12:21:58.090Z,975.79
2018-06-07T12:22:58.340Z,975.84
2018-06-07T12:23:58.594Z,975.82
2018-06-07T12:24:58.844Z,975.78
2018-06-07T12:25:59.098Z,975.77
2018-06-07T12:26:59.345Z,975.79
2018-06-07T12:27:59.598Z,975.73
2018-06-07T12:28:59.849Z,975.71
2018-06-07T12:30:00.120Z,975.66
2018-06-07T12:31:00.376Z,975.68
2018-06-07T12:32:00.634Z,975.71